createdAt,value
2023-01-03T00:00:37.545Z,99632.66
2023-01-03T00:02:43.510Z,99633.50
2023-01-03T00:04:49.863Z,99634.34
2023-01-03T00:06:57.715Z,99634.31
2023-01-03T00:09:04.412Z,99641.00
2023-01-03T00:11:15.621Z,99641.84
2023-01-03T00:13:17.996Z,99654.38
2023-01-03T00:15:22.947Z,99645.19
2023-01-03T00:17:28.462Z,99653.56
2023-01-03T00:19:37.057Z,99659.41
2023-01-03T00:21:43.223Z,99652.69
2023-01-03T00:23:50.852Z,99660.22
2023-01-03T00:25:55.833Z,99666.09
2023-01-03T00:28:00.797Z,99662.72
2023-01-03T00:30:06.774Z,99657.69
2023-01-03T00:32:12.263Z,99657.69
2023-01-03T00:34:17.413Z,99662.72
2023-01-03T00:36:23.244Z,99671.91
2023-01-03T00:38:28.198Z,99671.91
2023-01-03T00:40:35.769Z,99657.72
2023-01-03T00:42:53.012Z,99659.38
2023-01-03T00:44:57.954Z,99661.06
2023-01-03T00:47:04.110Z,99660.22
2023-01-03T00:49:09.100Z,99649.38
2023-01-03T00:51:17.073Z,99661.03
2023-01-03T00:53:22.191Z,99666.06
2023-01-03T00:55:27.123Z,99656.03
2023-01-03T00:57:34.627Z,99664.41
2023-01-03T00:59:39.578Z,99662.75
2023-01-03T01:01:48.251Z,99660.25
2023-01-03T01:04:00.219Z,99663.56
2023-01-03T01:06:15.278Z,99671.91
2023-01-03T01:08:20.283Z,99670.22
2023-01-03T01:10:25.629Z,99678.56
2023-01-03T01:12:30.621Z,99678.56
2023-01-03T01:14:38.735Z,99684.38
2023-01-03T01:16:43.663Z,99685.19
2023-01-03T01:18:53.717Z,99686.84
2023-01-03T01:20:59.692Z,99682.66
2023-01-03T01:23:05.824Z,99691.00
2023-01-03T01:25:11.180Z,99686.78
2023-01-03T01:27:16.597Z,99690.13
2023-01-03T01:29:22.131Z,99692.59
2023-01-03T01:31:30.531Z,99693.41
2023-01-03T01:33:38.571Z,99689.22
2023-01-03T01:35:43.545Z,99692.56
2023-01-03T01:37:48.490Z,99700.84
2023-01-03T01:39:53.510Z,99702.50
2023-01-03T01:42:28.693Z,99709.13
2023-01-03T01:44:54.718Z,99711.63
2023-01-03T01:47:02.255Z,99715.78
2023-01-03T01:49:12.101Z,99718.31
2023-01-03T01:51:17.163Z,99718.34
2023-01-03T01:53:26.764Z,99722.53
2023-01-03T01:55:40.165Z,99718.38
2023-01-03T01:57:47.110Z,99720.06
2023-01-03T01:59:52.683Z,99725.09
2023-01-03T02:01:58.490Z,99733.47
2023-01-03T02:04:11.912Z,99728.41
2023-01-03T02:06:19.676Z,99739.28
2023-01-03T02:08:25.217Z,99735.94
2023-01-03T02:10:59.781Z,99750.94
2023-01-03T02:13:17.255Z,99745.09
2023-01-03T02:15:41.239Z,99754.22
2023-01-03T02:18:00.749Z,99748.34
2023-01-03T02:20:33.262Z,99747.50
2023-01-03T02:23:17.069Z,99744.06
2023-01-03T02:25:54.708Z,99740.69
2023-01-03T02:28:35.971Z,99745.63
2023-01-03T02:30:49.166Z,99742.19
2023-01-03T02:32:55.823Z,99745.44
2023-01-03T02:35:10.029Z,99753.72
2023-01-03T02:37:24.640Z,99744.50
2023-01-03T02:39:40.876Z,99746.91
2023-01-03T02:41:50.007Z,99744.34
2023-01-03T02:43:59.217Z,99739.28
2023-01-03T02:46:13.088Z,99748.41
2023-01-03T02:48:25.334Z,99746.75
2023-01-03T02:50:38.935Z,99753.41
2023-01-03T02:52:47.789Z,99746.78
2023-01-03T02:54:59.611Z,99751.78
2023-01-03T02:57:12.076Z,99741.03
2023-01-03T02:59:23.433Z,99748.47
2023-01-03T03:01:32.990Z,99743.41
2023-01-03T03:03:41.771Z,99753.38
2023-01-03T03:05:55.881Z,99751.69
2023-01-03T03:08:01.017Z,99751.69
2023-01-03T03:10:21.648Z,99754.09
2023-01-03T03:12:41.362Z,99753.19
2023-01-03T03:14:52.882Z,99764.72
2023-01-03T03:17:06.720Z,99762.28
2023-01-03T03:19:46.804Z,99764.91
2023-01-03T03:22:04.465Z,99759.81
2023-01-03T03:24:27.103Z,99760.75
2023-01-03T03:26:40.268Z,99755.00
2023-01-03T03:28:49.333Z,99767.53
2023-01-03T03:31:00.392Z,99768.34
2023-01-03T03:33:09.835Z,99768.25
2023-01-03T03:35:19.537Z,99773.28
2023-01-03T03:37:29.119Z,99773.31
2023-01-03T03:39:48.398Z,99768.34
2023-01-03T03:42:11.183Z,99770.88
2023-01-03T03:44:39.371Z,99774.28
2023-01-03T03:46:54.911Z,99769.97
2023-01-03T03:49:20.961Z,99766.59
2023-01-03T03:51:30.676Z,99775.69
2023-01-03T03:53:41.334Z,99774.75
2023-01-03T03:55:56.880Z,99773.84
2023-01-03T03:58:06.828Z,99766.38
2023-01-03T04:00:18.999Z,99775.53
2023-01-03T04:02:27.467Z,99776.41
2023-01-03T04:04:40.666Z,99783.13
2023-01-03T04:06:47.889Z,99776.47
2023-01-03T04:08:54.101Z,99783.97
2023-01-03T04:11:05.904Z,99784.75
2023-01-03T04:13:11.334Z,99782.97
2023-01-03T04:15:17.266Z,99786.25
2023-01-03T04:17:22.568Z,99799.56
2023-01-03T04:19:27.765Z,99798.72
2023-01-03T04:21:36.999Z,99791.97
2023-01-03T04:23:41.957Z,99796.16
2023-01-03T04:25:49.101Z,99801.94
2023-01-03T04:27:54.525Z,99802.81
2023-01-03T04:29:59.628Z,99808.53
2023-01-03T04:32:04.706Z,99802.72
2023-01-03T04:34:10.626Z,99807.81
2023-01-03T04:36:15.998Z,99803.75
2023-01-03T04:38:24.166Z,99804.75
2023-01-03T04:40:29.646Z,99805.59
2023-01-03T04:42:46.877Z,99804.72
2023-01-03T04:44:52.177Z,99800.47
2023-01-03T04:46:57.159Z,99801.22
2023-01-03T04:49:02.284Z,99805.28
2023-01-03T04:51:08.013Z,99809.28
2023-01-03T04:53:15.049Z,99801.69
2023-01-03T04:55:22.647Z,99804.97
2023-01-03T04:57:27.997Z,99809.09
2023-01-03T04:59:32.962Z,99801.69
2023-01-03T05:01:38.071Z,99798.34
2023-01-03T05:03:43.927Z,99794.38
2023-01-03T05:05:48.910Z,99796.78
2023-01-03T05:07:53.826Z,99795.09
2023-01-03T05:09:58.811Z,99801.69
2023-01-03T05:12:07.051Z,99802.44
2023-01-03T05:14:14.445Z,99794.13
2023-01-03T05:16:20.635Z,99795.69
2023-01-03T05:18:25.852Z,99795.59
2023-01-03T05:20:44.564Z,99800.38
2023-01-03T05:23:02.049Z,99801.91
2023-01-03T05:25:21.008Z,99801.91
2023-01-03T05:27:30.208Z,99802.47
2023-01-03T05:29:37.315Z,99798.16
2023-01-03T05:31:43.124Z,99796.25
2023-01-03T05:33:48.830Z,99799.50
2023-01-03T05:35:54.169Z,99804.41
2023-01-03T05:37:59.924Z,99800.94
2023-01-03T05:40:04.879Z,99804.22
2023-01-03T05:42:09.843Z,99810.03
2023-01-03T05:44:17.915Z,99804.13
2023-01-03T05:46:22.926Z,99809.03
2023-01-03T05:48:28.455Z,99806.53
2023-01-03T05:50:33.886Z,99809.88
2023-01-03T05:52:39.189Z,99807.50
2023-01-03T05:54:44.888Z,99810.88
2023-01-03T05:56:51.218Z,99807.47
2023-01-03T05:58:56.599Z,99809.22
2023-01-03T06:01:11.964Z,99807.78
2023-01-03T06:03:17.002Z,99814.44
2023-01-03T06:05:22.702Z,99814.75
2023-01-03T06:07:27.764Z,99817.22
2023-01-03T06:09:32.916Z,99816.34
2023-01-03T06:11:38.238Z,99814.75
2023-01-03T06:13:44.957Z,99822.91
2023-01-03T06:16:10.117Z,99821.34
2023-01-03T06:18:15.081Z,99826.31
2023-01-03T06:20:20.256Z,99818.91
2023-01-03T06:22:25.632Z,99822.22
2023-01-03T06:24:30.572Z,99827.19
2023-01-03T06:26:36.438Z,99829.72
2023-01-03T06:28:41.736Z,99828.03
2023-01-03T06:30:47.293Z,99829.50
2023-01-03T06:32:52.832Z,99822.75
2023-01-03T06:35:00.392Z,99829.28
2023-01-03T06:37:08.668Z,99826.06
2023-01-03T06:39:13.762Z,99824.44
2023-01-03T06:41:19.747Z,99836.97
2023-01-03T06:43:24.692Z,99836.19
2023-01-03T06:45:42.481Z,99846.97
2023-01-03T06:48:00.135Z,99845.13
2023-01-03T06:50:21.165Z,99851.09
2023-01-03T06:52:39.198Z,99843.56
2023-01-03T06:54:44.788Z,99849.03
2023-01-03T06:56:50.515Z,99850.91
2023-01-03T06:58:55.555Z,99849.97
2023-01-03T07:01:05.360Z,99851.59
2023-01-03T07:03:11.681Z,99853.25
2023-01-03T07:05:20.140Z,99859.84
2023-01-03T07:07:25.391Z,99863.03
2023-01-03T07:09:30.833Z,99866.41
2023-01-03T07:11:37.117Z,99871.47
2023-01-03T07:13:54.901Z,99865.56
2023-01-03T07:15:59.999Z,99873.75
2023-01-03T07:18:05.188Z,99878.69
2023-01-03T07:20:12.065Z,99879.53
2023-01-03T07:22:19.602Z,99879.50
2023-01-03T07:24:24.696Z,99886.91
2023-01-03T07:26:30.902Z,99884.78
2023-01-03T07:28:35.925Z,99892.97
2023-01-03T07:30:42.832Z,99891.38
2023-01-03T07:32:48.898Z,99893.06
2023-01-03T07:34:53.990Z,99900.53
2023-01-03T07:36:59.077Z,99907.34
2023-01-03T07:39:07.626Z,99914.03
2023-01-03T07:41:14.112Z,99911.56
2023-01-03T07:43:31.611Z,99917.38
2023-01-03T07:45:44.353Z,99921.38
2023-01-03T07:47:49.535Z,99932.84
2023-01-03T07:49:54.940Z,99924.53
2023-01-03T07:52:00.274Z,99929.44
2023-01-03T07:54:08.119Z,99932.81
2023-01-03T07:56:15.341Z,99940.22
2023-01-03T07:58:21.899Z,99938.47
2023-01-03T08:00:26.994Z,99941.06
2023-01-03T08:02:32.876Z,99942.06
2023-01-03T08:04:38.525Z,99944.59
2023-01-03T08:06:43.838Z,99952.34
2023-01-03T08:09:10.084Z,99953.34
2023-01-03T08:11:30.801Z,99948.41
2023-01-03T08:13:33.150Z,99949.41
2023-01-03T08:15:38.177Z,99951.22
2023-01-03T08:17:43.228Z,99945.34
2023-01-03T08:19:48.163Z,99946.22
2023-01-03T08:21:53.131Z,99938.81
2023-01-03T08:23:58.112Z,99948.00
2023-01-03T08:26:06.095Z,99947.22
2023-01-03T08:28:14.825Z,99945.59
2023-01-03T08:30:20.131Z,99943.94
2023-01-03T08:32:25.215Z,99949.00
2023-01-03T08:34:34.654Z,99949.91
2023-01-03T08:36:46.035Z,99950.72
2023-01-03T08:38:57.061Z,99952.41
2023-01-03T08:41:04.093Z,99947.41
2023-01-03T08:43:09.615Z,99952.41
2023-01-03T08:45:20.642Z,99964.88
2023-01-03T08:47:26.064Z,99966.50
2023-01-03T08:49:32.408Z,99968.13
2023-01-03T08:51:37.421Z,99972.25
2023-01-03T08:53:42.810Z,99966.41
2023-01-03T08:55:48.040Z,99977.16
2023-01-03T08:57:53.022Z,99973.81
2023-01-03T08:59:58.175Z,99978.84
2023-01-03T09:02:06.328Z,99979.78
2023-01-03T09:04:11.474Z,99975.72
2023-01-03T09:06:16.712Z,99984.06
2023-01-03T09:08:21.706Z,99987.38
2023-01-03T09:10:27.390Z,99984.81
2023-01-03T09:12:32.379Z,99990.66
2023-01-03T09:14:37.832Z,99990.66
2023-01-03T09:16:48.543Z,99990.66
2023-01-03T09:18:57.372Z,99990.69
2023-01-03T09:21:03.210Z,99994.13
2023-01-03T09:23:08.146Z,99987.66
2023-01-03T09:25:13.688Z,100000.31
2023-01-03T09:27:18.667Z,99999.63
2023-01-03T09:29:23.693Z,99999.00
2023-01-03T09:31:29.936Z,99996.63
2023-01-03T09:33:35.267Z,99995.06
2023-01-03T09:35:42.857Z,99993.59
2023-01-03T09:37:50.272Z,99996.28
2023-01-03T09:39:55.409Z,99990.47
2023-01-03T09:42:15.514Z,99987.28
2023-01-03T09:44:20.496Z,99989.00
2023-01-03T09:46:28.534Z,99986.59
2023-01-03T09:48:38.029Z,99989.22
2023-01-03T09:53:33.781Z,99996.19
2023-01-03T09:56:04.051Z,99991.28
2023-01-03T09:58:28.850Z,99993.84
2023-01-03T10:00:54.037Z,99997.25
2023-01-03T10:03:33.816Z,99997.25
2023-01-03T10:06:02.915Z,100000.63
2023-01-03T10:08:25.436Z,100002.34
2023-01-03T10:10:42.280Z,99994.78
2023-01-03T10:13:01.074Z,99996.41
2023-01-03T10:15:23.088Z,99989.75
2023-01-03T10:17:37.279Z,99992.28
2023-01-03T10:20:26.366Z,99990.75
2023-01-03T10:22:40.755Z,99996.69
2023-01-03T10:24:50.203Z,99991.75
2023-01-03T10:26:59.710Z,99991.84
2023-01-03T10:29:04.954Z,99994.34
2023-01-03T10:31:25.645Z,99987.72
2023-01-03T10:33:36.222Z,99991.06
2023-01-03T10:35:42.033Z,99985.19
2023-01-03T10:37:50.570Z,99991.88
2023-01-03T10:40:05.989Z,99995.22
2023-01-03T10:42:11.880Z,99984.34
2023-01-03T10:44:28.187Z,99980.16
2023-01-03T10:46:34.153Z,99973.41
2023-01-03T10:49:25.529Z,99976.72
2023-01-03T10:51:26.624Z,99973.41
2023-01-03T10:53:44.963Z,99970.09
2023-01-03T10:55:53.613Z,99970.09
2023-01-03T10:58:04.421Z,99970.97
2023-01-03T11:00:30.182Z,99961.00
2023-01-03T11:02:46.429Z,99956.88
2023-01-03T11:05:12.594Z,99960.22
2023-01-03T11:07:18.959Z,99961.94
2023-01-03T11:09:26.800Z,99965.25
2023-01-03T11:11:35.232Z,99959.44
2023-01-03T11:13:43.220Z,99965.31
2023-01-03T11:15:48.553Z,99961.97
2023-01-03T11:18:00.028Z,99966.13
2023-01-03T11:20:05.198Z,99959.47
2023-01-03T11:22:22.837Z,99954.44
2023-01-03T11:27:16.343Z,99951.94
2023-01-03T11:29:43.204Z,99951.91
2023-01-03T11:31:58.305Z,99951.91
2023-01-03T11:34:18.699Z,99951.94
2023-01-03T11:36:39.456Z,99953.63
2023-01-03T11:38:59.325Z,99958.59
2023-01-03T11:41:23.026Z,99963.66
2023-01-03T11:43:47.831Z,99959.47
2023-01-03T11:46:19.166Z,99960.31
2023-01-03T11:48:49.835Z,99951.97
2023-01-03T11:51:02.155Z,99952.81
2023-01-03T11:53:20.573Z,99946.97
2023-01-03T11:56:08.479Z,99945.28
2023-01-03T11:58:48.704Z,99947.84
2023-01-03T12:01:03.846Z,99943.66
2023-01-03T12:03:14.939Z,99942.84
2023-01-03T12:05:52.646Z,99942.84
2023-01-03T12:08:04.552Z,99937.81
2023-01-03T12:10:19.136Z,99931.94
2023-01-03T12:13:02.924Z,99929.41
2023-01-03T12:15:22.787Z,99933.63
2023-01-03T12:17:34.795Z,99931.09
2023-01-03T12:19:48.295Z,99926.94
2023-01-03T12:22:00.581Z,99925.25
2023-01-03T12:24:15.808Z,99925.25
2023-01-03T12:26:22.858Z,99920.22
2023-01-03T12:28:36.934Z,99910.16
2023-01-03T12:30:55.385Z,99910.09
2023-01-03T12:33:10.462Z,99910.03
2023-01-03T12:35:32.364Z,99904.97
2023-01-03T12:37:41.361Z,99913.38
2023-01-03T12:39:55.694Z,99918.38
2023-01-03T12:42:09.852Z,99915.91
2023-01-03T12:44:23.389Z,99915.06
2023-01-03T12:46:37.189Z,99914.25
2023-01-03T12:49:10.171Z,99910.94
2023-01-03T12:51:21.683Z,99903.44
2023-01-03T12:53:35.461Z,99905.97
2023-01-03T12:58:40.096Z,99905.97
2023-01-03T13:01:04.043Z,99900.94
2023-01-03T13:03:25.842Z,99901.78
2023-01-03T13:05:44.729Z,99900.09
2023-01-03T13:07:59.318Z,99902.66
2023-01-03T13:10:10.124Z,99896.81
2023-01-03T13:12:22.052Z,99899.31
2023-01-03T13:14:30.815Z,99900.97
2023-01-03T13:16:49.049Z,99895.94
2023-01-03T13:18:58.044Z,99900.13
2023-01-03T13:21:04.627Z,99903.47
2023-01-03T13:23:41.136Z,99895.09
2023-01-03T13:25:47.559Z,99901.81
2023-01-03T13:27:55.093Z,99906.00
2023-01-03T13:30:01.508Z,99903.50
2023-01-03T13:32:18.413Z,99900.13
2023-01-03T13:35:14.134Z,99891.75
2023-01-03T13:37:21.428Z,99889.25
2023-01-03T13:39:41.882Z,99894.28
2023-01-03T13:41:46.824Z,99893.41
2023-01-03T13:43:54.239Z,99890.94
2023-01-03T13:46:13.176Z,99891.75
2023-01-03T13:48:23.487Z,99895.13
2023-01-03T13:50:37.063Z,99900.13
2023-01-03T13:53:02.319Z,99905.97
2023-01-03T13:55:09.204Z,99902.63
2023-01-03T13:57:40.066Z,99903.44
2023-01-03T13:59:50.309Z,99899.25
2023-01-03T14:02:23.780Z,99899.25
2023-01-03T14:05:03.687Z,99897.56
2023-01-03T14:07:54.044Z,99902.59
2023-01-03T14:10:19.383Z,99898.41
2023-01-03T14:12:59.553Z,99901.75
2023-01-03T14:15:25.536Z,99904.25
2023-01-03T14:17:35.642Z,99899.25
2023-01-03T14:19:43.315Z,99900.06
2023-01-03T14:21:53.345Z,99905.06
2023-01-03T14:24:02.311Z,99907.56
2023-01-03T14:26:15.098Z,99906.72
2023-01-03T14:28:24.336Z,99907.53
2023-01-03T14:30:37.184Z,99905.03
2023-01-03T14:32:43.119Z,99901.69
2023-01-03T14:34:48.033Z,99910.03
2023-01-03T14:36:53.021Z,99914.22
2023-01-03T14:39:02.774Z,99915.88
2023-01-03T14:41:09.339Z,99915.06
2023-01-03T14:43:21.190Z,99923.38
2023-01-03T14:45:26.620Z,99922.53
2023-01-03T14:47:38.157Z,99931.66
2023-01-03T14:49:48.452Z,99937.50
2023-01-03T14:52:00.252Z,99932.47
2023-01-03T14:54:10.285Z,99930.00
2023-01-03T14:56:15.607Z,99929.97
2023-01-03T14:58:35.385Z,99934.16
2023-01-03T15:00:40.630Z,99935.78
2023-01-03T15:02:47.787Z,99926.63
2023-01-03T15:04:57.532Z,99928.28
2023-01-03T15:07:12.973Z,99918.28
2023-01-03T15:09:25.486Z,99929.97
2023-01-03T15:11:35.128Z,99923.28
2023-01-03T15:13:47.970Z,99929.97
2023-01-03T15:15:58.192Z,99934.94
2023-01-03T15:18:10.180Z,99927.44
2023-01-03T15:20:22.389Z,99933.25
2023-01-03T15:22:42.857Z,99931.56
2023-01-03T15:24:53.851Z,99930.72
2023-01-03T15:26:58.713Z,99933.22
2023-01-03T15:29:14.247Z,99936.56
2023-01-03T15:31:38.442Z,99931.53
2023-01-03T15:33:45.179Z,99944.06
2023-01-03T15:35:54.162Z,99947.41
2023-01-03T15:37:59.569Z,99945.72
2023-01-03T15:40:08.933Z,99945.69
2023-01-03T15:42:49.148Z,99946.50
2023-01-03T15:44:55.665Z,99954.88
2023-01-03T15:47:05.761Z,99959.84
2023-01-03T15:49:13.288Z,99958.19
2023-01-03T15:51:18.235Z,99959.84
2023-01-03T15:53:30.841Z,99958.13
2023-01-03T15:55:39.378Z,99955.59
2023-01-03T15:57:53.843Z,99948.09
2023-01-03T16:00:01.890Z,99948.09
2023-01-03T16:02:17.656Z,99953.91
2023-01-03T16:04:22.869Z,99952.28
2023-01-03T16:06:27.756Z,99950.59
2023-01-03T16:08:35.008Z,99947.25
2023-01-03T16:10:42.553Z,99946.41
2023-01-03T16:12:47.878Z,99946.38
2023-01-03T16:14:56.109Z,99943.06
2023-01-03T16:17:01.606Z,99943.06
2023-01-03T16:19:08.904Z,99940.53
2023-01-03T16:21:15.708Z,99945.50
2023-01-03T16:23:29.363Z,99952.97
2023-01-03T16:25:34.031Z,99951.28
2023-01-03T16:27:41.829Z,99947.91
2023-01-03T16:29:46.792Z,99943.75
2023-01-03T16:31:51.793Z,99939.56
2023-01-03T16:33:56.778Z,99938.75
2023-01-03T16:36:02.411Z,99937.94
2023-01-03T16:38:07.511Z,99938.81
2023-01-03T16:40:17.381Z,99938.81
2023-01-03T16:42:27.572Z,99939.63
2023-01-03T16:44:36.822Z,99945.47
2023-01-03T16:46:42.324Z,99942.09
2023-01-03T16:48:52.411Z,99947.94
2023-01-03T16:50:58.172Z,99944.59
2023-01-03T16:53:03.643Z,99942.94
2023-01-03T16:55:18.879Z,99943.81
2023-01-03T16:57:25.403Z,99945.47
2023-01-03T16:59:30.300Z,99933.00
2023-01-03T17:01:37.837Z,99936.38
2023-01-03T17:03:43.567Z,99944.69
2023-01-03T17:05:49.389Z,99943.03
2023-01-03T17:07:59.339Z,99949.72
2023-01-03T17:10:04.680Z,99943.03
2023-01-03T17:12:12.214Z,99941.38
2023-01-03T17:14:24.593Z,99944.69
2023-01-03T17:16:31.880Z,99938.00
2023-01-03T17:18:43.301Z,99939.69
2023-01-03T17:20:48.643Z,99937.16
2023-01-03T17:22:57.506Z,99938.00
2023-01-03T17:25:02.953Z,99933.84
2023-01-03T17:27:09.754Z,99922.16
2023-01-03T17:29:21.047Z,99928.00
2023-01-03T17:31:28.795Z,99938.00
2023-01-03T17:33:34.578Z,99942.97
2023-01-03T17:35:42.412Z,99944.63
2023-01-03T17:40:29.167Z,99936.31
2023-01-03T17:42:36.581Z,99937.97
2023-01-03T17:44:42.629Z,99934.66
2023-01-03T17:47:00.215Z,99940.50
2023-01-03T17:49:19.186Z,99933.00
2023-01-03T17:51:27.537Z,99937.16
2023-01-03T17:53:33.690Z,99935.53
2023-01-03T17:55:39.911Z,99939.69
2023-01-03T17:57:45.469Z,99938.00
2023-01-03T17:59:50.360Z,99936.34
2023-01-03T18:01:56.754Z,99940.50
2023-01-03T18:04:02.379Z,99934.66
2023-01-03T18:06:13.387Z,99930.47
2023-01-03T18:08:24.580Z,99926.31
2023-01-03T18:10:45.250Z,99934.66
2023-01-03T18:12:52.389Z,99928.00
2023-01-03T18:14:57.236Z,99923.78
2023-01-03T18:17:02.367Z,99930.44
2023-01-03T18:19:07.639Z,99932.94
2023-01-03T18:21:21.622Z,99926.25
2023-01-03T18:25:42.105Z,99923.69
2023-01-03T18:27:52.575Z,99915.34
2023-01-03T18:29:57.549Z,99917.84
2023-01-03T18:32:02.968Z,99925.34
2023-01-03T18:34:07.947Z,99928.66
2023-01-03T18:36:30.789Z,99921.94
2023-01-03T18:38:41.378Z,99923.59
2023-01-03T18:40:46.549Z,99933.63
2023-01-03T18:43:04.837Z,99932.75
2023-01-03T18:45:18.036Z,99935.28
2023-01-03T18:47:23.056Z,99933.56
2023-01-03T18:49:27.885Z,99933.53
2023-01-03T18:51:32.988Z,99931.84
2023-01-03T18:53:40.758Z,99925.19
2023-01-03T18:55:45.886Z,99924.31
2023-01-03T18:57:52.199Z,99930.09
2023-01-03T18:59:57.067Z,99929.25
2023-01-03T19:02:02.541Z,99929.22
2023-01-03T19:04:10.408Z,99925.78
2023-01-03T19:06:21.685Z,99934.13
2023-01-03T19:08:33.545Z,99940.75
2023-01-03T19:10:41.360Z,99940.56
2023-01-03T19:12:46.652Z,99939.59
2023-01-03T19:14:51.939Z,99940.41
2023-01-03T19:16:56.830Z,99945.34
2023-01-03T19:19:02.497Z,99939.38
2023-01-03T19:21:08.036Z,99944.31
2023-01-03T19:23:22.662Z,99943.47
2023-01-03T19:25:31.355Z,99949.28
2023-01-03T19:27:44.733Z,99941.03
2023-01-03T19:29:50.214Z,99941.84
2023-01-03T19:31:57.686Z,99941.03
2023-01-03T19:34:02.523Z,99936.00
2023-01-03T19:36:16.459Z,99944.31
2023-01-03T19:38:21.364Z,99936.72
2023-01-03T19:40:32.666Z,99940.06
2023-01-03T19:42:52.632Z,99934.31
2023-01-03T19:44:57.487Z,99928.47
2023-01-03T19:47:03.076Z,99927.56
2023-01-03T19:49:16.993Z,99935.00
2023-01-03T19:51:21.862Z,99926.50
2023-01-03T19:53:26.730Z,99925.44
2023-01-03T19:55:35.051Z,99920.34
2023-01-03T19:57:45.568Z,99914.56
2023-01-03T19:59:55.707Z,99911.88
2023-01-03T20:04:26.799Z,99915.66
2023-01-03T20:06:33.008Z,99925.53
2023-01-03T20:08:37.865Z,99922.09
2023-01-03T20:10:45.226Z,99917.09
2023-01-03T20:12:57.646Z,99925.09
2023-01-03T20:15:07.201Z,99920.00
2023-01-03T20:17:23.510Z,99930.72
2023-01-03T20:19:30.586Z,99925.56
2023-01-03T20:21:35.779Z,99921.44
2023-01-03T20:23:44.785Z,99917.91
2023-01-03T20:25:51.790Z,99917.66
2023-01-03T20:28:02.534Z,99920.03
2023-01-03T20:30:17.204Z,99914.97
2023-01-03T20:32:24.742Z,99911.53
2023-01-03T20:34:30.317Z,99911.34
2023-01-03T20:36:43.048Z,99907.78
2023-01-03T20:38:50.994Z,99900.44
2023-01-03T20:40:56.276Z,99897.66
2023-01-03T20:43:05.522Z,99907.44
2023-01-03T20:45:12.925Z,99898.25
2023-01-03T20:47:27.447Z,99901.22
2023-01-03T20:49:32.351Z,99899.16
2023-01-03T20:51:37.609Z,99896.44
2023-01-03T20:53:43.461Z,99892.16
2023-01-03T20:55:50.481Z,99895.09
2023-01-03T20:57:55.471Z,99893.69
2023-01-03T21:00:03.613Z,99885.16
2023-01-03T21:02:09.282Z,99885.03
2023-01-03T21:04:17.691Z,99887.31
2023-01-03T21:06:26.899Z,99882.59
2023-01-03T21:08:44.311Z,99879.97
2023-01-03T21:10:52.916Z,99877.31
2023-01-03T21:12:58.882Z,99884.72
2023-01-03T21:15:06.954Z,99882.78
2023-01-03T21:17:14.100Z,99886.63
2023-01-03T21:19:21.777Z,99882.34
2023-01-03T21:21:33.443Z,99880.72
2023-01-03T21:23:38.952Z,99880.59
2023-01-03T21:25:43.829Z,99877.44
2023-01-03T21:27:49.592Z,99879.13
2023-01-03T21:29:54.489Z,99873.97
2023-01-03T21:32:02.659Z,99875.75
2023-01-03T21:34:10.123Z,99870.81
2023-01-03T21:36:22.764Z,99869.19
2023-01-03T21:38:27.968Z,99872.47
2023-01-03T21:40:33.080Z,99867.44
2023-01-03T21:42:50.464Z,99864.72
2023-01-03T21:44:55.905Z,99862.25
2023-01-03T21:47:03.363Z,99860.13
2023-01-03T21:49:08.267Z,99860.78
2023-01-03T21:51:19.007Z,99855.88
2023-01-03T21:53:32.616Z,99854.13
2023-01-03T21:55:37.644Z,99848.09
2023-01-03T21:57:42.920Z,99841.97
2023-01-03T21:59:47.765Z,99846.56
2023-01-03T22:02:06.212Z,99840.00
2023-01-03T22:04:20.701Z,99845.03
2023-01-03T22:06:25.732Z,99845.03
2023-01-03T22:08:31.585Z,99841.81
2023-01-03T22:10:38.264Z,99844.13
2023-01-03T22:12:43.125Z,99848.06
2023-01-03T22:14:48.585Z,99848.81
2023-01-03T22:16:53.743Z,99844.34
2023-01-03T22:18:58.704Z,99844.34
2023-01-03T22:21:10.175Z,99848.88
2023-01-03T22:23:16.903Z,99845.59
2023-01-03T22:25:25.446Z,99839.84
2023-01-03T22:27:30.663Z,99838.91
2023-01-03T22:29:35.637Z,99835.88
2023-01-03T22:31:40.602Z,99832.59
2023-01-03T22:33:46.267Z,99823.63
2023-01-03T22:35:51.114Z,99819.03
2023-01-03T22:37:59.009Z,99806.78
2023-01-03T22:40:04.227Z,99812.03
2023-01-03T22:42:11.311Z,99802.81
2023-01-03T22:44:19.491Z,99800.19
2023-01-03T22:46:24.443Z,99807.13
2023-01-03T22:48:29.334Z,99816.88
2023-01-03T22:50:34.633Z,99827.44
2023-01-03T22:52:41.164Z,99830.47
2023-01-03T22:54:49.961Z,99832.34
2023-01-03T22:56:57.219Z,99830.88
2023-01-03T22:59:02.072Z,99824.31
2023-01-03T23:01:12.193Z,99834.84
2023-01-03T23:03:17.170Z,99830.72
2023-01-03T23:05:22.331Z,99827.59
2023-01-03T23:07:27.528Z,99814.72
2023-01-03T23:09:32.774Z,99813.03
2023-01-03T23:11:52.884Z,99824.91
2023-01-03T23:13:58.212Z,99824.00
2023-01-03T23:16:04.867Z,99826.59
2023-01-03T23:18:09.818Z,99820.38
2023-01-03T23:20:14.880Z,99819.94
2023-01-03T23:22:20.057Z,99813.19
2023-01-03T23:24:26.651Z,99810.63
2023-01-03T23:26:31.551Z,99814.56
2023-01-03T23:28:38.984Z,99806.22
2023-01-03T23:30:43.883Z,99800.25
2023-01-03T23:32:48.950Z,99798.66
2023-01-03T23:34:53.884Z,99801.13
2023-01-03T23:36:58.924Z,99785.34
2023-01-03T23:39:04.271Z,99780.50
2023-01-03T23:41:10.027Z,99775.72
2023-01-03T23:43:15.272Z,99770.28
2023-01-03T23:45:23.159Z,99771.72
2023-01-03T23:47:28.161Z,99771.72
2023-01-03T23:49:33.104Z,99770.56
2023-01-03T23:51:39.326Z,99766.75
2023-01-03T23:53:46.169Z,99768.34
2023-01-03T23:55:51.376Z,99769.19
2023-01-03T23:57:56.346Z,99774.81
